createdAt,value
2022-08-21T00:02:26.718Z,0.63
2022-08-21T00:04:57.829Z,1.70
2022-08-21T00:07:26.855Z,0.60
2022-08-21T00:09:57.406Z,0.60
2022-08-21T00:12:28.193Z,0.70
2022-08-21T00:14:59.561Z,0.60
2022-08-21T00:17:28.591Z,0.60
2022-08-21T00:19:58.181Z,0.60
2022-08-21T00:22:26.494Z,1.83
2022-08-21T00:24:54.640Z,2.10
2022-08-21T00:27:23.115Z,0.60
2022-08-21T00:29:51.408Z,0.60
2022-08-21T00:32:23.190Z,0.57
2022-08-21T00:34:51.365Z,0.60
2022-08-21T00:37:21.966Z,0.50
2022-08-21T00:39:50.227Z,0.60
2022-08-21T00:42:20.932Z,0.60
2022-08-21T00:44:51.020Z,0.57
2022-08-21T00:47:20.353Z,0.60
2022-08-21T00:49:48.430Z,0.60
2022-08-21T00:52:23.000Z,0.57
2022-08-21T00:54:57.803Z,0.60
2022-08-21T00:57:30.879Z,0.60
2022-08-21T01:00:06.751Z,0.60
2022-08-21T01:02:36.148Z,0.50
2022-08-21T01:05:08.287Z,0.80
2022-08-21T01:07:40.667Z,1.00
2022-08-21T01:10:10.067Z,0.53
2022-08-21T01:12:43.506Z,0.57
2022-08-21T01:15:16.492Z,1.40
2022-08-21T01:17:44.808Z,1.10
2022-08-21T01:20:14.159Z,2.50
2022-08-21T01:22:43.765Z,0.70
2022-08-21T01:25:13.947Z,1.20
2022-08-21T01:27:42.081Z,1.33
2022-08-21T01:30:14.882Z,0.70
2022-08-21T01:32:43.405Z,0.80
2022-08-21T01:35:13.347Z,0.70
2022-08-21T01:37:43.784Z,0.70
2022-08-21T01:40:13.634Z,0.60
2022-08-21T01:42:42.205Z,0.70
2022-08-21T01:45:11.883Z,0.70
2022-08-21T01:47:40.074Z,0.70
2022-08-21T01:50:14.298Z,0.60
2022-08-21T01:52:46.321Z,0.70
2022-08-21T01:55:16.997Z,0.60
2022-08-21T01:57:45.739Z,0.60
2022-08-21T02:00:16.501Z,0.60
2022-08-21T02:02:44.944Z,0.70
2022-08-21T02:05:14.617Z,0.80
2022-08-21T02:07:47.337Z,0.67
2022-08-21T02:10:18.409Z,0.70
2022-08-21T02:12:50.688Z,0.67
2022-08-21T02:15:19.684Z,0.60
2022-08-21T02:17:55.811Z,0.60
2022-08-21T02:20:28.997Z,0.60
2022-08-21T02:22:59.103Z,1.07
2022-08-21T02:25:31.323Z,0.60
2022-08-21T02:28:00.928Z,0.60
2022-08-21T02:30:34.124Z,0.60
2022-08-21T02:33:04.965Z,0.60
2022-08-21T02:35:33.627Z,0.60
2022-08-21T02:38:07.040Z,0.60
2022-08-21T02:40:47.851Z,0.60
2022-08-21T02:43:20.334Z,0.60
2022-08-21T02:45:49.289Z,0.60
2022-08-21T02:48:20.804Z,0.50
2022-08-21T02:50:51.145Z,0.60
2022-08-21T02:53:21.563Z,0.60
2022-08-21T02:55:53.463Z,0.60
2022-08-21T02:58:25.361Z,0.60
2022-08-21T03:00:54.218Z,0.53
2022-08-21T03:03:22.546Z,0.60
2022-08-21T03:05:51.492Z,0.60
2022-08-21T03:08:22.450Z,0.60
2022-08-21T03:10:55.199Z,0.60
2022-08-21T03:13:23.789Z,0.60
2022-08-21T03:15:54.763Z,0.60
2022-08-21T03:18:23.136Z,0.60
2022-08-21T03:20:51.855Z,0.60
2022-08-21T03:23:21.495Z,0.60
2022-08-21T03:25:51.902Z,0.60
2022-08-21T03:28:23.516Z,0.50
2022-08-21T03:30:53.076Z,0.60
2022-08-21T03:33:24.345Z,0.60
2022-08-21T03:36:01.537Z,0.60
2022-08-21T03:38:33.854Z,0.70
2022-08-21T03:41:02.782Z,1.00
2022-08-21T03:43:34.109Z,0.90
2022-08-21T03:46:04.348Z,6.73
2022-08-21T03:48:32.581Z,0.90
2022-08-21T03:51:00.884Z,0.90
2022-08-21T03:53:32.787Z,0.90
2022-08-21T03:56:01.116Z,0.80
2022-08-21T03:58:30.204Z,0.80
2022-08-21T04:01:01.103Z,0.90
2022-08-21T04:03:29.896Z,0.80
2022-08-21T04:05:58.180Z,1.00
2022-08-21T04:08:26.326Z,0.80
2022-08-21T04:10:59.286Z,0.80
2022-08-21T04:13:29.194Z,1.77
2022-08-21T04:15:59.017Z,0.80
2022-08-21T04:18:27.261Z,0.80
2022-08-21T04:20:56.776Z,0.70
2022-08-21T04:23:26.798Z,0.70
2022-08-21T04:25:57.576Z,0.70
2022-08-21T04:28:29.295Z,0.70
2022-08-21T04:30:59.433Z,0.70
2022-08-21T04:33:30.232Z,0.80
2022-08-21T04:35:58.428Z,0.70
2022-08-21T04:38:27.334Z,0.70
2022-08-21T04:41:07.433Z,0.70
2022-08-21T04:43:35.960Z,0.70
2022-08-21T04:46:04.333Z,0.60
2022-08-21T04:48:35.201Z,0.70
2022-08-21T04:51:09.983Z,0.70
2022-08-21T04:53:41.402Z,0.70
2022-08-21T04:56:16.792Z,0.70
2022-08-21T04:58:45.365Z,0.67
2022-08-21T05:01:19.557Z,0.70
2022-08-21T05:03:51.078Z,0.70
2022-08-21T05:06:19.663Z,0.70
2022-08-21T05:08:49.792Z,0.70
2022-08-21T05:11:19.660Z,0.70
2022-08-21T05:13:47.913Z,0.70
2022-08-21T05:16:36.524Z,0.70
2022-08-21T05:19:06.543Z,0.70
2022-08-21T05:21:34.974Z,0.90
2022-08-21T05:24:03.257Z,1.47
2022-08-21T05:26:32.987Z,0.60
2022-08-21T05:29:01.503Z,0.60
2022-08-21T05:31:30.364Z,0.50
2022-08-21T05:33:58.932Z,0.60
2022-08-21T05:36:27.292Z,0.60
2022-08-21T05:38:55.347Z,0.60
2022-08-21T05:41:23.666Z,0.70
2022-08-21T05:43:53.362Z,0.60
2022-08-21T05:46:21.685Z,0.60
2022-08-21T05:48:49.979Z,0.70
2022-08-21T05:51:18.819Z,0.80
2022-08-21T05:53:47.651Z,0.60
2022-08-21T05:56:16.423Z,0.50
2022-08-21T05:58:44.954Z,0.60
2022-08-21T06:01:15.837Z,0.90
2022-08-21T06:03:44.387Z,1.67
2022-08-21T06:06:12.734Z,0.60
2022-08-21T06:08:41.035Z,0.67
2022-08-21T06:11:09.672Z,0.60
2022-08-21T06:13:41.907Z,0.60
2022-08-21T06:16:15.980Z,0.60
2022-08-21T06:18:46.878Z,0.70
2022-08-21T06:21:15.465Z,0.60
2022-08-21T06:23:43.602Z,0.93
2022-08-21T06:26:13.236Z,0.50
2022-08-21T06:28:42.529Z,0.50
2022-08-21T06:31:16.177Z,1.67
2022-08-21T06:33:47.949Z,1.53
2022-08-21T06:36:16.890Z,1.60
2022-08-21T06:38:51.050Z,0.60
2022-08-21T06:41:24.359Z,0.60
2022-08-21T06:43:56.261Z,1.23
2022-08-21T06:46:24.850Z,0.60
2022-08-21T06:48:57.499Z,0.60
2022-08-21T06:51:28.348Z,0.97
2022-08-21T06:53:56.883Z,0.80
2022-08-21T06:56:29.696Z,0.60
2022-08-21T06:58:59.677Z,1.33
2022-08-21T07:01:29.979Z,0.60
2022-08-21T07:03:59.811Z,0.60
2022-08-21T07:06:29.138Z,0.70
2022-08-21T07:08:58.898Z,0.50
2022-08-21T07:11:27.907Z,0.80
2022-08-21T07:13:57.741Z,0.60
2022-08-21T07:16:29.102Z,1.23
2022-08-21T07:18:59.769Z,0.50
2022-08-21T07:21:28.302Z,1.37
2022-08-21T07:23:56.559Z,0.60
2022-08-21T07:26:27.171Z,0.60
2022-08-21T07:28:56.264Z,0.60
2022-08-21T07:31:27.300Z,0.50
2022-08-21T07:33:58.697Z,0.60
2022-08-21T07:36:33.290Z,0.60
2022-08-21T07:39:03.759Z,0.50
2022-08-21T07:41:33.137Z,1.57
2022-08-21T07:44:08.878Z,2.67
2022-08-21T07:46:40.947Z,2.70
2022-08-21T07:49:11.971Z,0.60
2022-08-21T07:51:43.285Z,0.70
2022-08-21T07:54:11.508Z,0.60
2022-08-21T07:56:45.532Z,0.60
2022-08-21T07:59:13.920Z,0.50
2022-08-21T08:01:42.468Z,0.50
2022-08-21T08:04:10.697Z,0.60
2022-08-21T08:06:38.823Z,1.47
2022-08-21T08:09:11.023Z,0.50
2022-08-21T08:11:48.406Z,1.13
2022-08-21T08:14:31.350Z,0.70
2022-08-21T08:17:06.879Z,0.60
2022-08-21T08:19:54.037Z,0.70
2022-08-21T08:22:37.977Z,0.50
2022-08-21T08:25:36.462Z,0.60
2022-08-21T08:28:16.672Z,0.60
2022-08-21T08:30:53.600Z,0.60
2022-08-21T08:33:22.065Z,1.00
2022-08-21T08:35:52.678Z,0.60
2022-08-21T08:38:25.358Z,0.60
2022-08-21T08:41:03.781Z,0.60
2022-08-21T08:43:34.797Z,0.70
2022-08-21T08:46:06.463Z,0.60
2022-08-21T08:48:50.633Z,0.60
2022-08-21T08:51:27.637Z,0.60
2022-08-21T08:54:02.375Z,0.80
2022-08-21T08:56:34.818Z,0.80
2022-08-21T08:59:12.126Z,1.80
2022-08-21T09:01:40.760Z,0.60
2022-08-21T09:04:09.554Z,0.60
2022-08-21T09:06:51.190Z,0.60
2022-08-21T09:09:31.809Z,0.90
2022-08-21T09:12:06.568Z,0.60
2022-08-21T09:14:49.821Z,0.63
2022-08-21T09:17:33.051Z,0.60
2022-08-21T09:20:11.225Z,0.60
2022-08-21T09:22:48.954Z,0.60
2022-08-21T09:25:24.034Z,0.60
2022-08-21T09:27:53.929Z,0.63
2022-08-21T09:30:28.719Z,0.70
2022-08-21T09:32:57.914Z,0.60
2022-08-21T09:35:28.299Z,0.70
2022-08-21T09:38:04.157Z,0.80
2022-08-21T09:40:36.040Z,0.70
2022-08-21T09:43:07.956Z,0.80
2022-08-21T09:45:37.194Z,0.90
2022-08-21T09:48:14.256Z,1.10
2022-08-21T09:50:47.327Z,1.70
2022-08-21T09:53:21.273Z,1.97
2022-08-21T09:56:10.686Z,1.70
2022-08-21T09:58:43.794Z,2.33
2022-08-21T10:01:17.404Z,4.10
2022-08-21T10:03:46.127Z,5.90
2022-08-21T10:06:25.496Z,6.40
2022-08-21T10:09:07.778Z,6.57
2022-08-21T10:11:36.926Z,7.20
2022-08-21T10:14:17.140Z,7.40
2022-08-21T10:17:00.686Z,7.57
2022-08-21T10:19:36.561Z,8.80
2022-08-21T10:22:16.853Z,9.23
2022-08-21T10:24:54.739Z,9.30
2022-08-21T10:27:34.337Z,10.00
2022-08-21T10:30:08.487Z,9.57
2022-08-21T10:32:58.397Z,10.70
2022-08-21T10:35:31.901Z,10.70
2022-08-21T10:38:48.750Z,10.20
2022-08-21T10:41:24.328Z,10.30
2022-08-21T10:44:00.270Z,11.03
2022-08-21T10:46:44.763Z,10.40
2022-08-21T10:49:24.470Z,10.53
2022-08-21T10:52:01.865Z,12.00
2022-08-21T10:54:39.357Z,11.63
2022-08-21T10:57:31.889Z,11.70
2022-08-21T11:00:07.038Z,11.27
2022-08-21T11:02:42.666Z,11.53
2022-08-21T11:05:16.156Z,11.10
2022-08-21T11:07:49.557Z,17.03
2022-08-21T11:10:31.966Z,15.43
2022-08-21T11:13:11.159Z,15.53
2022-08-21T11:15:46.354Z,16.07
2022-08-21T11:18:30.452Z,16.60
2022-08-21T11:21:10.568Z,15.37
2022-08-21T11:23:45.811Z,16.40
2022-08-21T11:26:21.526Z,16.33
2022-08-21T11:28:57.685Z,15.53
2022-08-21T11:31:41.735Z,12.27
2022-08-21T11:34:25.346Z,15.90
2022-08-21T11:37:06.762Z,16.37
2022-08-21T11:39:43.059Z,16.77
2022-08-21T11:42:22.482Z,17.10
2022-08-21T11:44:58.010Z,16.30
2022-08-21T11:47:38.674Z,17.60
2022-08-21T11:50:29.810Z,17.43
2022-08-21T11:53:10.282Z,17.00
2022-08-21T11:55:44.116Z,16.73
2022-08-21T11:58:20.195Z,16.67
2022-08-21T12:00:53.314Z,16.90
2022-08-21T12:03:28.878Z,16.93
2022-08-21T12:06:01.727Z,18.57
2022-08-21T12:08:32.507Z,15.97
2022-08-21T12:11:08.131Z,14.40
2022-08-21T12:13:42.667Z,16.07
2022-08-21T12:16:13.860Z,16.37
2022-08-21T12:18:43.344Z,17.23
2022-08-21T12:21:26.259Z,15.70
2022-08-21T12:24:05.054Z,17.10
2022-08-21T12:26:36.961Z,17.57
2022-08-21T12:29:17.866Z,15.83
2022-08-21T12:32:01.727Z,16.17
2022-08-21T12:34:38.037Z,15.63
2022-08-21T12:37:24.480Z,15.03
2022-08-21T12:39:56.342Z,15.43
2022-08-21T12:42:28.462Z,15.83
2022-08-21T12:45:04.385Z,16.63
2022-08-21T12:47:37.090Z,15.20
2022-08-21T12:50:09.447Z,16.10
2022-08-21T12:52:46.661Z,15.00
2022-08-21T12:55:18.861Z,14.67
2022-08-21T12:57:47.182Z,15.73
2022-08-21T13:00:22.758Z,14.50
2022-08-21T13:02:52.878Z,15.03
2022-08-21T13:05:32.091Z,13.65
2022-08-21T13:08:06.511Z,15.80
2022-08-21T13:10:38.003Z,15.50
2022-08-21T13:13:12.698Z,16.20
2022-08-21T13:15:47.644Z,15.37
2022-08-21T13:18:24.673Z,17.40
2022-08-21T13:20:53.700Z,16.17
2022-08-21T13:23:28.228Z,15.63
2022-08-21T13:25:57.786Z,15.53
2022-08-21T13:28:34.124Z,16.73
2022-08-21T13:31:02.657Z,15.97
2022-08-21T13:33:37.781Z,15.80
2022-08-21T13:36:11.444Z,15.70
2022-08-21T13:38:44.128Z,16.17
2022-08-21T13:41:19.947Z,14.40
2022-08-21T13:43:51.281Z,15.60
2022-08-21T13:46:29.691Z,16.37
2022-08-21T13:49:15.285Z,16.50
2022-08-21T13:51:46.502Z,15.23
2022-08-21T13:54:33.123Z,15.50
2022-08-21T13:57:01.608Z,16.23
2022-08-21T13:59:32.179Z,15.50
2022-08-21T14:02:03.145Z,16.17
2022-08-21T14:04:38.756Z,16.17
2022-08-21T14:07:18.619Z,15.77
2022-08-21T14:09:49.807Z,15.43
2022-08-21T14:12:27.505Z,15.73
2022-08-21T14:14:59.983Z,16.53
2022-08-21T14:17:33.364Z,16.37
2022-08-21T14:20:02.460Z,16.90
2022-08-21T14:22:40.037Z,16.40
2022-08-21T14:25:13.135Z,16.77
2022-08-21T14:27:46.584Z,19.23
2022-08-21T14:30:20.900Z,15.73
2022-08-21T14:32:49.651Z,16.10
2022-08-21T14:35:18.560Z,15.27
2022-08-21T14:37:53.062Z,16.10
2022-08-21T14:40:25.552Z,16.17
2022-08-21T14:42:54.347Z,15.83
2022-08-21T14:45:27.782Z,16.90
2022-08-21T14:48:00.016Z,15.80
2022-08-21T14:50:28.443Z,15.57
2022-08-21T14:52:56.602Z,16.03
2022-08-21T14:55:26.329Z,17.00
2022-08-21T14:57:56.782Z,15.37
2022-08-21T15:00:36.245Z,15.87
2022-08-21T15:03:05.173Z,14.53
2022-08-21T15:05:34.195Z,14.53
2022-08-21T15:08:02.829Z,15.63
2022-08-21T15:10:34.972Z,15.67
2022-08-21T15:13:04.060Z,17.73
2022-08-21T15:15:41.129Z,15.10
2022-08-21T15:18:10.006Z,16.03
2022-08-21T15:20:39.710Z,14.77
2022-08-21T15:23:14.743Z,15.17
2022-08-21T15:25:46.286Z,15.00
2022-08-21T15:28:15.956Z,14.80
2022-08-21T15:30:45.835Z,14.80
2022-08-21T15:33:14.024Z,15.00
2022-08-21T15:35:44.954Z,16.37
2022-08-21T15:38:16.071Z,15.80
2022-08-21T15:40:51.979Z,14.97
2022-08-21T15:43:29.830Z,14.83
2022-08-21T15:46:01.225Z,15.23
2022-08-21T15:48:29.818Z,13.83
2022-08-21T15:50:58.050Z,15.13
2022-08-21T15:53:26.522Z,15.40
2022-08-21T15:55:58.550Z,14.77
2022-08-21T15:58:27.530Z,14.93
2022-08-21T16:00:56.360Z,15.40
2022-08-21T16:03:26.439Z,14.97
2022-08-21T16:05:56.701Z,16.10
2022-08-21T16:08:25.664Z,15.37
2022-08-21T16:10:54.940Z,15.67
2022-08-21T16:13:28.713Z,15.30
2022-08-21T16:15:57.823Z,15.80
2022-08-21T16:18:28.211Z,16.00
2022-08-21T16:20:56.629Z,16.53
2022-08-21T16:23:25.194Z,16.77
2022-08-21T16:25:55.732Z,16.20
2022-08-21T16:28:25.406Z,16.30
2022-08-21T16:30:57.623Z,15.70
2022-08-21T16:33:32.295Z,16.87
2022-08-21T16:36:03.485Z,15.93
2022-08-21T16:38:32.578Z,17.43
2022-08-21T16:41:05.403Z,17.93
2022-08-21T16:43:37.663Z,17.43
2022-08-21T16:46:06.353Z,17.53
2022-08-21T16:48:34.684Z,17.40
2022-08-21T16:51:03.038Z,16.80
2022-08-21T16:53:31.333Z,16.50
2022-08-21T16:56:01.828Z,16.10
2022-08-21T16:58:33.447Z,16.20
2022-08-21T17:01:07.551Z,16.17
2022-08-21T17:03:41.154Z,18.50
2022-08-21T17:06:10.517Z,16.13
2022-08-21T17:08:39.364Z,17.07
2022-08-21T17:11:09.920Z,17.27
2022-08-21T17:13:39.312Z,20.20
2022-08-21T17:16:09.474Z,18.00
2022-08-21T17:18:37.857Z,17.77
2022-08-21T17:21:06.847Z,18.40
2022-08-21T17:23:35.259Z,16.43
2022-08-21T17:26:06.528Z,16.97
2022-08-21T17:28:41.191Z,15.73
2022-08-21T17:31:14.693Z,17.53
2022-08-21T17:33:50.649Z,16.00
2022-08-21T17:36:19.489Z,16.03
2022-08-21T17:38:48.358Z,16.13
2022-08-21T17:41:20.304Z,16.47
2022-08-21T17:43:53.285Z,15.50
2022-08-21T17:46:48.703Z,16.33
2022-08-21T17:49:30.150Z,16.73
2022-08-21T17:52:00.347Z,16.47
2022-08-21T17:54:31.258Z,17.00
2022-08-21T17:57:07.578Z,16.70
2022-08-21T17:59:36.887Z,16.90
2022-08-21T18:02:20.146Z,15.80
2022-08-21T18:04:50.756Z,17.30
2022-08-21T18:07:32.273Z,15.90
2022-08-21T18:10:14.138Z,16.30
2022-08-21T18:12:45.741Z,15.87
2022-08-21T18:15:17.116Z,15.30
2022-08-21T18:17:49.997Z,16.30
2022-08-21T18:20:20.771Z,16.47
2022-08-21T18:22:49.603Z,15.53
2022-08-21T18:25:19.277Z,16.40
2022-08-21T18:27:49.960Z,16.37
2022-08-21T18:30:22.416Z,16.57
2022-08-21T18:33:08.348Z,16.37
2022-08-21T18:35:37.523Z,16.23
2022-08-21T18:38:06.377Z,16.50
2022-08-21T18:40:41.443Z,17.50
2022-08-21T18:43:15.702Z,16.93
2022-08-21T18:45:45.258Z,16.80
2022-08-21T18:48:17.862Z,17.57
2022-08-21T18:50:48.156Z,17.43
2022-08-21T18:53:24.187Z,18.27
2022-08-21T18:56:04.741Z,17.87
2022-08-21T18:58:34.171Z,20.63
2022-08-21T19:01:02.646Z,19.37
2022-08-21T19:03:32.769Z,19.10
2022-08-21T19:06:01.246Z,20.43
2022-08-21T19:08:31.490Z,19.63
2022-08-21T19:11:02.572Z,21.83
2022-08-21T19:13:32.036Z,19.83
2022-08-21T19:16:03.708Z,19.67
2022-08-21T19:18:36.748Z,21.00
2022-08-21T19:21:05.681Z,22.57
2022-08-21T19:23:36.373Z,20.77
2022-08-21T19:26:08.659Z,19.57
2022-08-21T19:28:39.382Z,20.43
2022-08-21T19:31:16.286Z,21.23
2022-08-21T19:33:55.079Z,21.57
2022-08-21T19:36:25.974Z,21.03
2022-08-21T19:38:54.742Z,20.77
2022-08-21T19:41:26.096Z,21.63
2022-08-21T19:43:57.631Z,19.90
2022-08-21T19:46:29.728Z,20.10
2022-08-21T19:49:01.672Z,20.07
2022-08-21T19:51:30.778Z,21.00
2022-08-21T19:54:10.969Z,19.77
2022-08-21T19:56:40.087Z,19.90
2022-08-21T19:59:10.665Z,20.70
2022-08-21T20:01:40.045Z,20.83
2022-08-21T20:04:10.718Z,19.80
2022-08-21T20:06:47.300Z,21.47
2022-08-21T20:09:17.155Z,21.20
2022-08-21T20:11:51.221Z,20.60
2022-08-21T20:14:21.784Z,19.17
2022-08-21T20:16:52.934Z,19.53
2022-08-21T20:19:23.578Z,20.63
2022-08-21T20:21:51.803Z,20.40
2022-08-21T20:24:21.357Z,20.17
2022-08-21T20:26:56.791Z,19.93
2022-08-21T20:29:31.481Z,20.53
2022-08-21T20:32:08.091Z,19.53
2022-08-21T20:34:45.085Z,20.70
2022-08-21T20:37:13.717Z,21.57
2022-08-21T20:39:51.265Z,19.73
2022-08-21T20:42:21.790Z,20.53
2022-08-21T20:44:53.729Z,20.73
2022-08-21T20:47:24.109Z,21.50
2022-08-21T20:49:59.594Z,20.53
2022-08-21T20:52:28.139Z,20.57
2022-08-21T20:55:04.553Z,20.23
2022-08-21T20:57:43.425Z,21.40
2022-08-21T21:00:14.864Z,20.60
2022-08-21T21:02:49.653Z,20.57
2022-08-21T21:05:23.237Z,20.80
2022-08-21T21:08:01.605Z,20.80
2022-08-21T21:10:35.597Z,20.53
2022-08-21T21:13:09.854Z,19.77
2022-08-21T21:15:44.061Z,20.60
2022-08-21T21:18:15.813Z,21.00
2022-08-21T21:20:56.708Z,22.20
2022-08-21T21:23:32.223Z,20.63
2022-08-21T21:26:14.394Z,21.27
2022-08-21T21:28:49.964Z,19.97
2022-08-21T21:31:19.399Z,21.50
2022-08-21T21:33:49.307Z,20.83
2022-08-21T21:36:31.308Z,22.47
2022-08-21T21:39:10.609Z,22.00
2022-08-21T21:41:46.013Z,19.58
2022-08-21T21:44:43.528Z,22.90
2022-08-21T21:47:23.451Z,22.47
2022-08-21T21:53:15.439Z,22.67
2022-08-21T21:56:04.192Z,21.03
2022-08-21T21:58:59.492Z,19.97
2022-08-21T22:01:39.049Z,20.93
2022-08-21T22:04:17.222Z,21.00
2022-08-21T22:06:56.414Z,19.45
2022-08-21T22:09:40.532Z,21.50
2022-08-21T22:12:24.823Z,20.90
2022-08-21T22:14:53.399Z,21.47
2022-08-21T22:17:33.921Z,22.53
2022-08-21T22:20:06.571Z,22.40
2022-08-21T22:22:36.627Z,22.63
2022-08-21T22:25:15.466Z,22.97
2022-08-21T22:27:44.967Z,21.73
2022-08-21T22:30:18.275Z,21.87
2022-08-21T22:32:50.490Z,21.40
2022-08-21T22:35:22.420Z,20.70
2022-08-21T22:37:56.627Z,21.33
2022-08-21T22:40:30.278Z,21.60
2022-08-21T22:43:02.558Z,21.43
2022-08-21T22:45:57.525Z,21.57
2022-08-21T22:48:30.516Z,20.10
2022-08-21T22:51:05.572Z,21.53
2022-08-21T22:53:37.065Z,20.20
2022-08-21T22:56:11.052Z,21.03
2022-08-21T22:58:52.895Z,20.93
2022-08-21T23:01:36.000Z,20.33
2022-08-21T23:04:20.237Z,19.50
2022-08-21T23:06:52.765Z,19.77
2022-08-21T23:09:34.386Z,20.50
2022-08-21T23:12:21.245Z,20.40
2022-08-21T23:14:54.576Z,20.57
2022-08-21T23:17:33.472Z,21.00
2022-08-21T23:20:14.105Z,21.23
2022-08-21T23:22:55.260Z,21.63
2022-08-21T23:25:39.742Z,20.80
2022-08-21T23:28:22.291Z,20.50
2022-08-21T23:31:01.632Z,20.33
2022-08-21T23:33:46.211Z,23.03
2022-08-21T23:36:41.446Z,21.00
2022-08-21T23:39:25.701Z,21.70
2022-08-21T23:41:59.399Z,20.63
2022-08-21T23:44:41.685Z,20.57
2022-08-21T23:47:24.801Z,22.83
2022-08-21T23:50:13.698Z,20.80
2022-08-21T23:53:04.933Z,21.43
2022-08-21T23:55:51.100Z,21.47
2022-08-21T23:58:33.605Z,22.73
